sensor_id;sensor_type;location;lat;lon;timestamp;temperature;humidity
74178;DHT22;62540;48.456;-4.456;2022-07-29T00:01:49;21.57;59.44
74178;DHT22;62540;48.456;-4.456;2022-07-29T00:04:17;21.58;59.12
74178;DHT22;62540;48.456;-4.456;2022-07-29T00:06:42;21.51;59.84
74178;DHT22;62540;48.456;-4.456;2022-07-29T00:09:08;21.49;59.99
74178;DHT22;62540;48.456;-4.456;2022-07-29T00:11:33;21.49;59.34
74178;DHT22;62540;48.456;-4.456;2022-07-29T00:13:59;21.48;59.37
74178;DHT22;62540;48.456;-4.456;2022-07-29T00:16:24;21.44;60.07
74178;DHT22;62540;48.456;-4.456;2022-07-29T00:18:49;21.39;59.98
74178;DHT22;62540;48.456;-4.456;2022-07-29T00:21:15;21.31;60.58
74178;DHT22;62540;48.456;-4.456;2022-07-29T00:23:40;21.23;60.61
74178;DHT22;62540;48.456;-4.456;2022-07-29T00:26:06;21.15;61.07
74178;DHT22;62540;48.456;-4.456;2022-07-29T00:28:31;21.17;61.63
74178;DHT22;62540;48.456;-4.456;2022-07-29T00:30:56;21.07;61.79
74178;DHT22;62540;48.456;-4.456;2022-07-29T00:33:22;21.03;62.09
74178;DHT22;62540;48.456;-4.456;2022-07-29T00:35:48;20.94;62.21
74178;DHT22;62540;48.456;-4.456;2022-07-29T00:38:16;20.89;61.74
74178;DHT22;62540;48.456;-4.456;2022-07-29T00:40:42;20.84;62.60
74178;DHT22;62540;48.456;-4.456;2022-07-29T00:43:09;20.80;62.87
74178;DHT22;62540;48.456;-4.456;2022-07-29T00:45:34;20.81;63.07
74178;DHT22;62540;48.456;-4.456;2022-07-29T00:48:00;20.83;62.68
74178;DHT22;62540;48.456;-4.456;2022-07-29T00:50:26;20.84;62.68
74178;DHT22;62540;48.456;-4.456;2022-07-29T00:52:52;20.79;62.85
74178;DHT22;62540;48.456;-4.456;2022-07-29T00:55:18;20.79;63.19
74178;DHT22;62540;48.456;-4.456;2022-07-29T00:57:44;20.76;62.85
74178;DHT22;62540;48.456;-4.456;2022-07-29T01:00:17;20.72;63.23
74178;DHT22;62540;48.456;-4.456;2022-07-29T01:02:44;20.70;63.22
74178;DHT22;62540;48.456;-4.456;2022-07-29T01:05:11;20.70;63.72
74178;DHT22;62540;48.456;-4.456;2022-07-29T01:07:37;20.69;64.76
74178;DHT22;62540;48.456;-4.456;2022-07-29T01:10:04;20.62;63.49
74178;DHT22;62540;48.456;-4.456;2022-07-29T01:12:32;20.63;63.51
74178;DHT22;62540;48.456;-4.456;2022-07-29T01:14:59;20.65;64.01
74178;DHT22;62540;48.456;-4.456;2022-07-29T01:17:32;20.68;63.16
74178;DHT22;62540;48.456;-4.456;2022-07-29T01:23:06;20.63;63.75
74178;DHT22;62540;48.456;-4.456;2022-07-29T01:31:11;20.42;65.02
74178;DHT22;62540;48.456;-4.456;2022-07-29T01:33:44;20.43;64.69
74178;DHT22;62540;48.456;-4.456;2022-07-29T01:36:18;20.33;65.40
74178;DHT22;62540;48.456;-4.456;2022-07-29T01:38:50;20.25;65.82
74178;DHT22;62540;48.456;-4.456;2022-07-29T01:41:19;20.21;65.75
74178;DHT22;62540;48.456;-4.456;2022-07-29T01:43:58;20.10;66.19
74178;DHT22;62540;48.456;-4.456;2022-07-29T01:46:29;20.05;66.89
74178;DHT22;62540;48.456;-4.456;2022-07-29T01:49:13;20.01;66.23
74178;DHT22;62540;48.456;-4.456;2022-07-29T01:51:46;19.97;67.02
74178;DHT22;62540;48.456;-4.456;2022-07-29T01:54:25;19.93;66.55
74178;DHT22;62540;48.456;-4.456;2022-07-29T01:56:53;19.91;67.08
74178;DHT22;62540;48.456;-4.456;2022-07-29T01:59:20;19.85;66.78
74178;DHT22;62540;48.456;-4.456;2022-07-29T02:01:48;19.83;67.67
74178;DHT22;62540;48.456;-4.456;2022-07-29T02:04:16;19.87;67.75
74178;DHT22;62540;48.456;-4.456;2022-07-29T02:06:44;19.91;67.70
74178;DHT22;62540;48.456;-4.456;2022-07-29T02:09:12;19.94;67.65
74178;DHT22;62540;48.456;-4.456;2022-07-29T02:11:40;19.91;67.79
74178;DHT22;62540;48.456;-4.456;2022-07-29T02:14:06;19.87;67.95
74178;DHT22;62540;48.456;-4.456;2022-07-29T02:16:33;19.85;68.07
74178;DHT22;62540;48.456;-4.456;2022-07-29T02:19:01;19.80;68.21
74178;DHT22;62540;48.456;-4.456;2022-07-29T02:21:29;19.77;68.36
74178;DHT22;62540;48.456;-4.456;2022-07-29T02:23:58;19.70;68.17
74178;DHT22;62540;48.456;-4.456;2022-07-29T02:26:25;19.63;68.63
74178;DHT22;62540;48.456;-4.456;2022-07-29T02:28:54;19.59;68.93
74178;DHT22;62540;48.456;-4.456;2022-07-29T02:31:23;19.54;68.86
74178;DHT22;62540;48.456;-4.456;2022-07-29T02:33:50;19.53;69.30
74178;DHT22;62540;48.456;-4.456;2022-07-29T02:36:17;19.45;68.74
74178;DHT22;62540;48.456;-4.456;2022-07-29T02:38:46;19.43;69.43
74178;DHT22;62540;48.456;-4.456;2022-07-29T02:41:18;19.36;69.42
74178;DHT22;62540;48.456;-4.456;2022-07-29T02:43:47;19.30;70.48
74178;DHT22;62540;48.456;-4.456;2022-07-29T02:46:17;19.23;70.66
74178;DHT22;62540;48.456;-4.456;2022-07-29T02:48:52;19.20;70.60
74178;DHT22;62540;48.456;-4.456;2022-07-29T02:51:23;19.22;70.84
74178;DHT22;62540;48.456;-4.456;2022-07-29T02:53:53;19.16;70.99
74178;DHT22;62540;48.456;-4.456;2022-07-29T02:56:27;19.15;71.10
74178;DHT22;62540;48.456;-4.456;2022-07-29T02:58:58;19.18;70.79
74178;DHT22;62540;48.456;-4.456;2022-07-29T03:01:25;19.18;71.07
74178;DHT22;62540;48.456;-4.456;2022-07-29T03:03:54;19.23;70.99
74178;DHT22;62540;48.456;-4.456;2022-07-29T03:06:25;19.23;70.54
74178;DHT22;62540;48.456;-4.456;2022-07-29T03:08:51;19.20;70.90
74178;DHT22;62540;48.456;-4.456;2022-07-29T03:11:17;19.20;70.75
74178;DHT22;62540;48.456;-4.456;2022-07-29T03:13:43;19.16;71.23
74178;DHT22;62540;48.456;-4.456;2022-07-29T03:16:10;19.19;71.18
74178;DHT22;62540;48.456;-4.456;2022-07-29T03:18:38;19.15;71.44
74178;DHT22;62540;48.456;-4.456;2022-07-29T03:21:03;19.09;71.76
74178;DHT22;62540;48.456;-4.456;2022-07-29T03:23:29;19.05;71.67
74178;DHT22;62540;48.456;-4.456;2022-07-29T03:25:55;19.04;71.59
74178;DHT22;62540;48.456;-4.456;2022-07-29T03:28:21;19.09;71.30
74178;DHT22;62540;48.456;-4.456;2022-07-29T03:30:48;19.09;71.45
74178;DHT22;62540;48.456;-4.456;2022-07-29T03:33:13;19.08;71.52
74178;DHT22;62540;48.456;-4.456;2022-07-29T03:35:38;19.12;71.61
74178;DHT22;62540;48.456;-4.456;2022-07-29T03:38:04;19.08;71.68
74178;DHT22;62540;48.456;-4.456;2022-07-29T03:40:38;19.08;71.64
74178;DHT22;62540;48.456;-4.456;2022-07-29T03:43:06;19.09;71.51
74178;DHT22;62540;48.456;-4.456;2022-07-29T03:45:34;19.09;71.69
74178;DHT22;62540;48.456;-4.456;2022-07-29T03:48:08;19.09;71.74
74178;DHT22;62540;48.456;-4.456;2022-07-29T03:50:34;19.14;71.82
74178;DHT22;62540;48.456;-4.456;2022-07-29T03:53:01;19.12;71.51
74178;DHT22;62540;48.456;-4.456;2022-07-29T03:55:29;19.12;71.81
74178;DHT22;62540;48.456;-4.456;2022-07-29T03:57:57;19.06;72.30
74178;DHT22;62540;48.456;-4.456;2022-07-29T04:00:24;19.11;72.45
74178;DHT22;62540;48.456;-4.456;2022-07-29T04:02:50;19.11;71.92
74178;DHT22;62540;48.456;-4.456;2022-07-29T04:05:16;19.05;72.84
74178;DHT22;62540;48.456;-4.456;2022-07-29T04:07:48;19.02;72.99
74178;DHT22;62540;48.456;-4.456;2022-07-29T04:10:14;18.98;73.39
74178;DHT22;62540;48.456;-4.456;2022-07-29T04:12:44;19.05;73.15
74178;DHT22;62540;48.456;-4.456;2022-07-29T04:15:10;19.05;73.19
74178;DHT22;62540;48.456;-4.456;2022-07-29T04:17:36;19.05;72.99
74178;DHT22;62540;48.456;-4.456;2022-07-29T04:20:01;19.04;73.06
74178;DHT22;62540;48.456;-4.456;2022-07-29T04:22:27;19.01;73.39
74178;DHT22;62540;48.456;-4.456;2022-07-29T04:24:52;18.94;74.11
74178;DHT22;62540;48.456;-4.456;2022-07-29T04:27:17;18.91;74.03
74178;DHT22;62540;48.456;-4.456;2022-07-29T04:29:43;18.98;73.78
74178;DHT22;62540;48.456;-4.456;2022-07-29T04:32:08;18.96;73.60
74178;DHT22;62540;48.456;-4.456;2022-07-29T04:34:34;18.99;73.28
74178;DHT22;62540;48.456;-4.456;2022-07-29T04:37:00;19.05;73.04
74178;DHT22;62540;48.456;-4.456;2022-07-29T04:39:25;19.06;72.55
74178;DHT22;62540;48.456;-4.456;2022-07-29T04:41:51;19.12;72.78
74178;DHT22;62540;48.456;-4.456;2022-07-29T04:44:16;19.16;71.35
74178;DHT22;62540;48.456;-4.456;2022-07-29T04:46:41;19.27;71.31
74178;DHT22;62540;48.456;-4.456;2022-07-29T04:49:07;19.27;71.80
74178;DHT22;62540;48.456;-4.456;2022-07-29T04:51:33;19.27;71.10
74178;DHT22;62540;48.456;-4.456;2022-07-29T04:53:59;19.32;71.33
74178;DHT22;62540;48.456;-4.456;2022-07-29T04:56:24;19.32;71.11
74178;DHT22;62540;48.456;-4.456;2022-07-29T04:58:50;19.36;71.45
74178;DHT22;62540;48.456;-4.456;2022-07-29T05:01:15;19.36;71.33
74178;DHT22;62540;48.456;-4.456;2022-07-29T05:03:40;19.39;71.09
74178;DHT22;62540;48.456;-4.456;2022-07-29T05:06:06;19.39;70.86
74178;DHT22;62540;48.456;-4.456;2022-07-29T05:08:31;19.39;70.72
74178;DHT22;62540;48.456;-4.456;2022-07-29T05:10:57;19.39;70.61
74178;DHT22;62540;48.456;-4.456;2022-07-29T05:13:22;19.40;70.42
74178;DHT22;62540;48.456;-4.456;2022-07-29T05:15:48;19.40;69.66
74178;DHT22;62540;48.456;-4.456;2022-07-29T05:18:13;19.43;69.98
74178;DHT22;62540;48.456;-4.456;2022-07-29T05:20:39;19.46;69.52
74178;DHT22;62540;48.456;-4.456;2022-07-29T05:23:04;19.50;69.87
74178;DHT22;62540;48.456;-4.456;2022-07-29T05:25:30;19.57;69.61
74178;DHT22;62540;48.456;-4.456;2022-07-29T05:27:56;19.63;69.59
74178;DHT22;62540;48.456;-4.456;2022-07-29T05:30:22;19.69;69.28
74178;DHT22;62540;48.456;-4.456;2022-07-29T05:32:47;19.80;69.03
74178;DHT22;62540;48.456;-4.456;2022-07-29T05:35:14;19.87;68.40
74178;DHT22;62540;48.456;-4.456;2022-07-29T05:37:40;19.95;68.27
74178;DHT22;62540;48.456;-4.456;2022-07-29T05:40:06;20.12;68.25
74178;DHT22;62540;48.456;-4.456;2022-07-29T05:42:31;20.36;67.88
74178;DHT22;62540;48.456;-4.456;2022-07-29T05:44:57;20.65;67.22
74178;DHT22;62540;48.456;-4.456;2022-07-29T05:47:23;20.94;66.90
74178;DHT22;62540;48.456;-4.456;2022-07-29T05:49:49;21.28;66.07
74178;DHT22;62540;48.456;-4.456;2022-07-29T05:52:15;21.58;65.77
74178;DHT22;62540;48.456;-4.456;2022-07-29T05:54:41;21.96;65.17
74178;DHT22;62540;48.456;-4.456;2022-07-29T05:57:06;22.18;64.74
74178;DHT22;62540;48.456;-4.456;2022-07-29T05:59:38;22.40;63.91
74178;DHT22;62540;48.456;-4.456;2022-07-29T06:02:04;22.54;63.59
74178;DHT22;62540;48.456;-4.456;2022-07-29T06:04:31;22.75;63.05
74178;DHT22;62540;48.456;-4.456;2022-07-29T06:06:56;23.12;62.49
74178;DHT22;62540;48.456;-4.456;2022-07-29T06:09:21;23.53;61.20
74178;DHT22;62540;48.456;-4.456;2022-07-29T06:11:48;23.94;60.44
74178;DHT22;62540;48.456;-4.456;2022-07-29T06:14:13;24.14;59.47
74178;DHT22;62540;48.456;-4.456;2022-07-29T06:16:39;24.40;58.85
74178;DHT22;62540;48.456;-4.456;2022-07-29T06:19:04;24.55;58.47
74178;DHT22;62540;48.456;-4.456;2022-07-29T06:21:29;24.70;58.13
74178;DHT22;62540;48.456;-4.456;2022-07-29T06:23:55;24.72;57.56
74178;DHT22;62540;48.456;-4.456;2022-07-29T06:26:20;24.72;57.92
74178;DHT22;62540;48.456;-4.456;2022-07-29T06:28:45;24.77;57.59
74178;DHT22;62540;48.456;-4.456;2022-07-29T06:31:11;24.79;57.45
74178;DHT22;62540;48.456;-4.456;2022-07-29T06:33:36;24.87;57.19
74178;DHT22;62540;48.456;-4.456;2022-07-29T06:36:04;25.07;56.93
74178;DHT22;62540;48.456;-4.456;2022-07-29T06:38:30;25.27;56.15
74178;DHT22;62540;48.456;-4.456;2022-07-29T06:40:55;25.33;55.97
74178;DHT22;62540;48.456;-4.456;2022-07-29T06:43:44;25.48;55.88
74178;DHT22;62540;48.456;-4.456;2022-07-29T06:46:12;25.51;55.34
74178;DHT22;62540;48.456;-4.456;2022-07-29T06:48:39;25.58;55.23
74178;DHT22;62540;48.456;-4.456;2022-07-29T06:51:06;25.55;54.44
74178;DHT22;62540;48.456;-4.456;2022-07-29T06:53:32;25.57;54.25
74178;DHT22;62540;48.456;-4.456;2022-07-29T06:55:59;25.49;54.53
74178;DHT22;62540;48.456;-4.456;2022-07-29T06:58:25;25.69;53.93
74178;DHT22;62540;48.456;-4.456;2022-07-29T07:00:51;25.76;53.39
74178;DHT22;62540;48.456;-4.456;2022-07-29T07:03:18;25.85;53.14
74178;DHT22;62540;48.456;-4.456;2022-07-29T07:05:44;25.99;53.15
74178;DHT22;62540;48.456;-4.456;2022-07-29T07:08:09;26.22;52.43
74178;DHT22;62540;48.456;-4.456;2022-07-29T07:10:35;26.34;52.13
74178;DHT22;62540;48.456;-4.456;2022-07-29T07:13:02;26.54;51.10
74178;DHT22;62540;48.456;-4.456;2022-07-29T07:15:28;26.58;50.65
74178;DHT22;62540;48.456;-4.456;2022-07-29T07:17:53;26.57;50.45
74178;DHT22;62540;48.456;-4.456;2022-07-29T07:20:19;26.55;50.59
74178;DHT22;62540;48.456;-4.456;2022-07-29T07:22:45;26.67;50.41
74178;DHT22;62540;48.456;-4.456;2022-07-29T07:25:11;26.64;50.43
74178;DHT22;62540;48.456;-4.456;2022-07-29T07:27:36;26.75;49.99
74178;DHT22;62540;48.456;-4.456;2022-07-29T07:30:05;26.84;49.56
74178;DHT22;62540;48.456;-4.456;2022-07-29T07:32:32;26.92;49.20
74178;DHT22;62540;48.456;-4.456;2022-07-29T07:34:58;26.98;49.20
74178;DHT22;62540;48.456;-4.456;2022-07-29T07:37:24;27.28;48.30
74178;DHT22;62540;48.456;-4.456;2022-07-29T07:39:50;27.45;47.99
74178;DHT22;62540;48.456;-4.456;2022-07-29T07:42:16;27.56;47.84
74178;DHT22;62540;48.456;-4.456;2022-07-29T07:44:42;27.66;47.71
74178;DHT22;62540;48.456;-4.456;2022-07-29T07:47:07;27.80;47.69
74178;DHT22;62540;48.456;-4.456;2022-07-29T07:49:32;27.98;47.26
74178;DHT22;62540;48.456;-4.456;2022-07-29T07:51:58;28.24;46.87
74178;DHT22;62540;48.456;-4.456;2022-07-29T07:54:23;28.42;46.13
74178;DHT22;62540;48.456;-4.456;2022-07-29T07:56:49;28.65;45.62
74178;DHT22;62540;48.456;-4.456;2022-07-29T07:59:15;28.83;45.64
74178;DHT22;62540;48.456;-4.456;2022-07-29T08:01:40;29.10;45.62
74178;DHT22;62540;48.456;-4.456;2022-07-29T08:04:06;29.27;44.51
74178;DHT22;62540;48.456;-4.456;2022-07-29T08:06:32;29.48;43.91
74178;DHT22;62540;48.456;-4.456;2022-07-29T08:09:00;29.71;42.11
74178;DHT22;62540;48.456;-4.456;2022-07-29T08:11:25;29.75;41.55
74178;DHT22;62540;48.456;-4.456;2022-07-29T08:13:51;29.65;41.61
74178;DHT22;62540;48.456;-4.456;2022-07-29T08:16:17;29.50;42.58
74178;DHT22;62540;48.456;-4.456;2022-07-29T08:18:44;29.75;42.79
74178;DHT22;62540;48.456;-4.456;2022-07-29T08:21:09;30.10;42.48
74178;DHT22;62540;48.456;-4.456;2022-07-29T08:23:35;30.33;40.78
74178;DHT22;62540;48.456;-4.456;2022-07-29T08:26:07;30.31;40.55
74178;DHT22;62540;48.456;-4.456;2022-07-29T08:28:40;30.17;40.56
74178;DHT22;62540;48.456;-4.456;2022-07-29T08:31:06;30.22;40.86
74178;DHT22;62540;48.456;-4.456;2022-07-29T08:33:32;30.47;40.12
74178;DHT22;62540;48.456;-4.456;2022-07-29T08:35:58;30.67;39.61
74178;DHT22;62540;48.456;-4.456;2022-07-29T08:38:24;30.78;39.54
74178;DHT22;62540;48.456;-4.456;2022-07-29T08:40:52;30.78;38.89
74178;DHT22;62540;48.456;-4.456;2022-07-29T08:43:18;31.03;37.83
74178;DHT22;62540;48.456;-4.456;2022-07-29T08:45:47;31.26;37.63
74178;DHT22;62540;48.456;-4.456;2022-07-29T08:48:14;31.47;38.59
74178;DHT22;62540;48.456;-4.456;2022-07-29T08:50:42;31.73;37.47
74178;DHT22;62540;48.456;-4.456;2022-07-29T08:53:11;31.81;36.65
74178;DHT22;62540;48.456;-4.456;2022-07-29T08:55:40;31.94;36.32
74178;DHT22;62540;48.456;-4.456;2022-07-29T08:58:06;32.01;36.28
74178;DHT22;62540;48.456;-4.456;2022-07-29T09:00:32;32.05;35.67
74178;DHT22;62540;48.456;-4.456;2022-07-29T09:03:01;31.97;35.25
74178;DHT22;62540;48.456;-4.456;2022-07-29T09:05:27;31.91;36.19
74178;DHT22;62540;48.456;-4.456;2022-07-29T09:07:53;31.91;35.35
74178;DHT22;62540;48.456;-4.456;2022-07-29T09:10:19;31.70;35.41
74178;DHT22;62540;48.456;-4.456;2022-07-29T09:12:45;31.76;36.43
74178;DHT22;62540;48.456;-4.456;2022-07-29T09:15:10;31.91;34.86
74178;DHT22;62540;48.456;-4.456;2022-07-29T09:17:40;31.87;35.41
74178;DHT22;62540;48.456;-4.456;2022-07-29T09:20:18;32.07;35.91
74178;DHT22;62540;48.456;-4.456;2022-07-29T09:22:44;32.25;35.30
74178;DHT22;62540;48.456;-4.456;2022-07-29T09:25:12;32.41;35.12
74178;DHT22;62540;48.456;-4.456;2022-07-29T09:27:38;32.52;34.85
74178;DHT22;62540;48.456;-4.456;2022-07-29T09:30:05;32.63;34.92
74178;DHT22;62540;48.456;-4.456;2022-07-29T09:32:32;32.66;34.57
74178;DHT22;62540;48.456;-4.456;2022-07-29T09:35:14;32.72;34.79
74178;DHT22;62540;48.456;-4.456;2022-07-29T09:37:40;32.76;34.30
74178;DHT22;62540;48.456;-4.456;2022-07-29T09:40:17;32.66;34.22
74178;DHT22;62540;48.456;-4.456;2022-07-29T09:42:43;32.75;34.17
74178;DHT22;62540;48.456;-4.456;2022-07-29T09:45:09;32.83;34.32
74178;DHT22;62540;48.456;-4.456;2022-07-29T09:47:43;32.71;33.87
74178;DHT22;62540;48.456;-4.456;2022-07-29T09:50:10;32.51;34.16
74178;DHT22;62540;48.456;-4.456;2022-07-29T09:52:45;32.63;33.64
74178;DHT22;62540;48.456;-4.456;2022-07-29T09:55:12;32.69;33.57
74178;DHT22;62540;48.456;-4.456;2022-07-29T09:57:37;32.71;34.31
74178;DHT22;62540;48.456;-4.456;2022-07-29T10:00:08;32.66;34.14
74178;DHT22;62540;48.456;-4.456;2022-07-29T10:02:36;32.65;34.33
74178;DHT22;62540;48.456;-4.456;2022-07-29T10:05:04;32.79;33.68
74178;DHT22;62540;48.456;-4.456;2022-07-29T10:07:51;32.89;34.05
74178;DHT22;62540;48.456;-4.456;2022-07-29T10:10:37;33.17;34.07
74178;DHT22;62540;48.456;-4.456;2022-07-29T10:13:06;33.26;33.88
74178;DHT22;62540;48.456;-4.456;2022-07-29T10:15:35;33.09;33.83
74178;DHT22;62540;48.456;-4.456;2022-07-29T10:18:04;33.37;34.07
74178;DHT22;62540;48.456;-4.456;2022-07-29T10:20:29;33.69;33.46
74178;DHT22;62540;48.456;-4.456;2022-07-29T10:22:55;33.87;32.81
74178;DHT22;62540;48.456;-4.456;2022-07-29T10:25:21;33.96;32.86
74178;DHT22;62540;48.456;-4.456;2022-07-29T10:27:48;34.08;32.40
74178;DHT22;62540;48.456;-4.456;2022-07-29T10:30:15;34.13;32.57
74178;DHT22;62540;48.456;-4.456;2022-07-29T10:43:59;34.31;31.91
74178;DHT22;62540;48.456;-4.456;2022-07-29T10:46:26;34.31;31.01
74178;DHT22;62540;48.456;-4.456;2022-07-29T11:07:32;34.01;31.79
74178;DHT22;62540;48.456;-4.456;2022-07-29T11:10:28;34.09;31.60
74178;DHT22;62540;48.456;-4.456;2022-07-29T11:12:54;34.22;31.89
74178;DHT22;62540;48.456;-4.456;2022-07-29T11:15:21;34.42;31.07
74178;DHT22;62540;48.456;-4.456;2022-07-29T11:21:10;34.91;31.45
74178;DHT22;62540;48.456;-4.456;2022-07-29T11:23:31;34.95;29.88
74178;DHT22;62540;48.456;-4.456;2022-07-29T11:28:51;34.76;30.16
74178;DHT22;62540;48.456;-4.456;2022-07-29T11:39:30;34.87;29.02
74178;DHT22;62540;48.456;-4.456;2022-07-29T11:47:28;34.32;30.16
74178;DHT22;62540;48.456;-4.456;2022-07-29T11:49:56;34.22;30.35
74178;DHT22;62540;48.456;-4.456;2022-07-29T11:52:23;34.17;30.60
74178;DHT22;62540;48.456;-4.456;2022-07-29T11:54:50;34.27;30.51
74178;DHT22;62540;48.456;-4.456;2022-07-29T11:57:17;34.29;29.93
74178;DHT22;62540;48.456;-4.456;2022-07-29T11:59:45;34.36;29.63
74178;DHT22;62540;48.456;-4.456;2022-07-29T12:02:12;34.25;30.26
74178;DHT22;62540;48.456;-4.456;2022-07-29T12:04:55;34.10;31.19
74178;DHT22;62540;48.456;-4.456;2022-07-29T12:07:32;34.01;30.12
74178;DHT22;62540;48.456;-4.456;2022-07-29T12:09:58;33.99;31.90
74178;DHT22;62540;48.456;-4.456;2022-07-29T12:12:24;33.95;31.25
74178;DHT22;62540;48.456;-4.456;2022-07-29T12:14:51;33.65;31.41
74178;DHT22;62540;48.456;-4.456;2022-07-29T12:20:00;33.44;33.61
74178;DHT22;62540;48.456;-4.456;2022-07-29T12:22:29;33.50;32.20
74178;DHT22;62540;48.456;-4.456;2022-07-29T12:24:55;33.29;31.96
74178;DHT22;62540;48.456;-4.456;2022-07-29T12:27:25;33.13;32.82
74178;DHT22;62540;48.456;-4.456;2022-07-29T12:30:00;33.14;34.56
74178;DHT22;62540;48.456;-4.456;2022-07-29T12:32:37;33.21;33.33
74178;DHT22;62540;48.456;-4.456;2022-07-29T12:37:38;33.00;34.07
74178;DHT22;62540;48.456;-4.456;2022-07-29T12:40:05;33.13;34.26
74178;DHT22;62540;48.456;-4.456;2022-07-29T12:42:31;33.13;34.46
74178;DHT22;62540;48.456;-4.456;2022-07-29T12:44:57;33.21;34.47
74178;DHT22;62540;48.456;-4.456;2022-07-29T12:47:23;33.31;34.66
74178;DHT22;62540;48.456;-4.456;2022-07-29T12:49:49;33.34;33.96
74178;DHT22;62540;48.456;-4.456;2022-07-29T12:52:33;33.37;33.84
74178;DHT22;62540;48.456;-4.456;2022-07-29T12:54:59;33.34;34.05
74178;DHT22;62540;48.456;-4.456;2022-07-29T12:57:25;33.40;33.14
74178;DHT22;62540;48.456;-4.456;2022-07-29T13:00:09;33.54;33.73
74178;DHT22;62540;48.456;-4.456;2022-07-29T13:02:36;33.68;33.15
74178;DHT22;62540;48.456;-4.456;2022-07-29T13:05:04;33.81;33.07
74178;DHT22;62540;48.456;-4.456;2022-07-29T13:07:31;33.82;32.24
74178;DHT22;62540;48.456;-4.456;2022-07-29T13:10:19;33.72;33.07
74178;DHT22;62540;48.456;-4.456;2022-07-29T13:13:02;33.77;33.05
74178;DHT22;62540;48.456;-4.456;2022-07-29T13:15:28;33.79;33.32
74178;DHT22;62540;48.456;-4.456;2022-07-29T13:17:53;33.67;32.91
74178;DHT22;62540;48.456;-4.456;2022-07-29T13:20:23;33.47;32.94
74178;DHT22;62540;48.456;-4.456;2022-07-29T13:22:49;33.23;33.11
74178;DHT22;62540;48.456;-4.456;2022-07-29T13:25:24;33.02;33.70
74178;DHT22;62540;48.456;-4.456;2022-07-29T13:27:50;33.03;34.11
74178;DHT22;62540;48.456;-4.456;2022-07-29T13:30:15;33.00;34.19
74178;DHT22;62540;48.456;-4.456;2022-07-29T13:32:40;32.90;34.10
74178;DHT22;62540;48.456;-4.456;2022-07-29T13:35:07;32.87;34.25
74178;DHT22;62540;48.456;-4.456;2022-07-29T13:37:34;32.89;34.03
74178;DHT22;62540;48.456;-4.456;2022-07-29T13:40:01;33.06;33.92
74178;DHT22;62540;48.456;-4.456;2022-07-29T13:42:28;33.03;33.10
74178;DHT22;62540;48.456;-4.456;2022-07-29T13:44:53;32.87;33.35
74178;DHT22;62540;48.456;-4.456;2022-07-29T13:47:21;32.82;33.54
74178;DHT22;62540;48.456;-4.456;2022-07-29T13:49:47;32.82;33.85
74178;DHT22;62540;48.456;-4.456;2022-07-29T13:52:13;32.61;34.46
74178;DHT22;62540;48.456;-4.456;2022-07-29T13:54:38;32.49;33.95
74178;DHT22;62540;48.456;-4.456;2022-07-29T13:57:04;32.41;34.20
74178;DHT22;62540;48.456;-4.456;2022-07-29T13:59:30;32.25;34.10
74178;DHT22;62540;48.456;-4.456;2022-07-29T14:01:56;32.00;35.15
74178;DHT22;62540;48.456;-4.456;2022-07-29T14:04:21;31.87;34.79
74178;DHT22;62540;48.456;-4.456;2022-07-29T14:06:48;31.77;35.11
74178;DHT22;62540;48.456;-4.456;2022-07-29T14:09:14;31.63;35.81
74178;DHT22;62540;48.456;-4.456;2022-07-29T14:11:39;31.60;35.85
74178;DHT22;62540;48.456;-4.456;2022-07-29T14:14:05;31.49;35.33
74178;DHT22;62540;48.456;-4.456;2022-07-29T14:16:31;31.30;35.31
74178;DHT22;62540;48.456;-4.456;2022-07-29T14:18:56;31.22;36.38
74178;DHT22;62540;48.456;-4.456;2022-07-29T14:21:21;31.15;36.30
74178;DHT22;62540;48.456;-4.456;2022-07-29T14:23:47;31.08;36.49
74178;DHT22;62540;48.456;-4.456;2022-07-29T14:26:13;31.00;36.15
74178;DHT22;62540;48.456;-4.456;2022-07-29T14:28:38;31.02;36.80
74178;DHT22;62540;48.456;-4.456;2022-07-29T14:31:03;31.02;36.42
74178;DHT22;62540;48.456;-4.456;2022-07-29T14:33:29;30.78;36.14
74178;DHT22;62540;48.456;-4.456;2022-07-29T14:35:54;30.67;35.62
74178;DHT22;62540;48.456;-4.456;2022-07-29T14:38:20;30.63;36.89
74178;DHT22;62540;48.456;-4.456;2022-07-29T14:40:45;30.57;37.25
74178;DHT22;62540;48.456;-4.456;2022-07-29T14:43:12;30.65;36.89
74178;DHT22;62540;48.456;-4.456;2022-07-29T14:45:39;30.70;35.77
74178;DHT22;62540;48.456;-4.456;2022-07-29T14:48:04;30.82;36.03
74178;DHT22;62540;48.456;-4.456;2022-07-29T14:50:30;30.78;35.89
74178;DHT22;62540;48.456;-4.456;2022-07-29T14:52:56;30.77;35.76
74178;DHT22;62540;48.456;-4.456;2022-07-29T14:55:21;30.81;36.08
74178;DHT22;62540;48.456;-4.456;2022-07-29T14:57:47;30.74;35.25
74178;DHT22;62540;48.456;-4.456;2022-07-29T15:00:13;30.68;35.68
74178;DHT22;62540;48.456;-4.456;2022-07-29T15:02:38;30.51;35.74
74178;DHT22;62540;48.456;-4.456;2022-07-29T15:05:04;30.44;35.81
74178;DHT22;62540;48.456;-4.456;2022-07-29T15:07:30;30.41;35.55
74178;DHT22;62540;48.456;-4.456;2022-07-29T15:09:55;30.43;35.65
74178;DHT22;62540;48.456;-4.456;2022-07-29T15:12:21;30.34;35.34
74178;DHT22;62540;48.456;-4.456;2022-07-29T15:14:46;30.22;36.24
74178;DHT22;62540;48.456;-4.456;2022-07-29T15:17:11;30.12;36.48
74178;DHT22;62540;48.456;-4.456;2022-07-29T15:19:37;29.99;36.92
74178;DHT22;62540;48.456;-4.456;2022-07-29T15:22:02;29.89;36.90
74178;DHT22;62540;48.456;-4.456;2022-07-29T15:24:30;29.85;36.84
74178;DHT22;62540;48.456;-4.456;2022-07-29T15:26:55;29.82;36.90
74178;DHT22;62540;48.456;-4.456;2022-07-29T15:29:21;29.76;36.73
74178;DHT22;62540;48.456;-4.456;2022-07-29T15:31:46;29.76;36.62
74178;DHT22;62540;48.456;-4.456;2022-07-29T15:34:12;29.82;36.79
74178;DHT22;62540;48.456;-4.456;2022-07-29T15:36:38;29.82;36.35
74178;DHT22;62540;48.456;-4.456;2022-07-29T15:39:03;29.75;37.06
74178;DHT22;62540;48.456;-4.456;2022-07-29T15:41:29;29.81;37.16
74178;DHT22;62540;48.456;-4.456;2022-07-29T15:43:54;29.73;36.55
74178;DHT22;62540;48.456;-4.456;2022-07-29T15:46:20;29.62;36.58
74178;DHT22;62540;48.456;-4.456;2022-07-29T15:49:05;29.41;36.88
74178;DHT22;62540;48.456;-4.456;2022-07-29T15:51:31;29.15;36.80
74178;DHT22;62540;48.456;-4.456;2022-07-29T15:53:57;28.90;38.48
74178;DHT22;62540;48.456;-4.456;2022-07-29T15:56:23;28.72;38.77
74178;DHT22;62540;48.456;-4.456;2022-07-29T15:58:49;28.66;39.08
74178;DHT22;62540;48.456;-4.456;2022-07-29T16:01:15;28.63;39.21
74178;DHT22;62540;48.456;-4.456;2022-07-29T16:03:40;28.53;38.96
74178;DHT22;62540;48.456;-4.456;2022-07-29T16:06:06;28.29;38.99
74178;DHT22;62540;48.456;-4.456;2022-07-29T16:08:31;28.14;40.14
74178;DHT22;62540;48.456;-4.456;2022-07-29T16:10:57;28.02;39.62
74178;DHT22;62540;48.456;-4.456;2022-07-29T16:13:22;28.08;39.17
74178;DHT22;62540;48.456;-4.456;2022-07-29T16:15:48;27.96;39.48
74178;DHT22;62540;48.456;-4.456;2022-07-29T16:18:13;27.74;39.84
74178;DHT22;62540;48.456;-4.456;2022-07-29T16:20:39;27.60;39.79